sensor_id;sensor_type;location;lat;lon;timestamp;pressure;altitude;pressure_sealevel;temperature;humidity
63097;BME280;49185;42.320;23.198;2022-11-21T00:01:57;93544.34;;;10.54;84.90
63097;BME280;49185;42.320;23.198;2022-11-21T00:04:22;93531.25;;;10.63;85.82
63097;BME280;49185;42.320;23.198;2022-11-21T00:06:49;93523.50;;;10.67;85.54
63097;BME280;49185;42.320;23.198;2022-11-21T00:09:15;93520.53;;;10.73;85.63
63097;BME280;49185;42.320;23.198;2022-11-21T00:11:40;93514.97;;;10.70;86.49
63097;BME280;49185;42.320;23.198;2022-11-21T00:14:06;93505.91;;;10.71;86.70
63097;BME280;49185;42.320;23.198;2022-11-21T00:16:31;93510.59;;;10.84;85.19
63097;BME280;49185;42.320;23.198;2022-11-21T00:18:57;93528.13;;;10.85;85.36
63097;BME280;49185;42.320;23.198;2022-11-21T00:21:22;93540.59;;;10.90;86.36
63097;BME280;49185;42.320;23.198;2022-11-21T00:23:47;93526.06;;;10.82;86.61
63097;BME280;49185;42.320;23.198;2022-11-21T00:26:15;93516.59;;;10.66;87.12
63097;BME280;49185;42.320;23.198;2022-11-21T00:28:40;93529.38;;;10.63;88.62
63097;BME280;49185;42.320;23.198;2022-11-21T00:31:06;93541.59;;;10.70;88.22
63097;BME280;49185;42.320;23.198;2022-11-21T00:33:35;93569.25;;;10.69;88.32
63097;BME280;49185;42.320;23.198;2022-11-21T00:36:08;93579.56;;;10.75;88.03
63097;BME280;49185;42.320;23.198;2022-11-21T00:38:34;93568.09;;;10.80;88.41
63097;BME280;49185;42.320;23.198;2022-11-21T00:41:00;93590.25;;;10.70;88.78
63097;BME280;49185;42.320;23.198;2022-11-21T00:43:25;93535.56;;;10.88;88.00
63097;BME280;49185;42.320;23.198;2022-11-21T00:45:50;93532.56;;;10.66;88.76
63097;BME280;49185;42.320;23.198;2022-11-21T00:48:16;93527.00;;;10.62;89.39
63097;BME280;49185;42.320;23.198;2022-11-21T00:50:41;93530.25;;;10.88;87.86
63097;BME280;49185;42.320;23.198;2022-11-21T00:53:07;93516.94;;;10.88;87.50
63097;BME280;49185;42.320;23.198;2022-11-21T00:55:32;93527.31;;;10.90;87.56
63097;BME280;49185;42.320;23.198;2022-11-21T00:57:58;93541.03;;;11.02;86.12
63097;BME280;49185;42.320;23.198;2022-11-21T01:00:23;93535.94;;;11.06;85.72
63097;BME280;49185;42.320;23.198;2022-11-21T01:02:49;93512.31;;;10.99;85.51
63097;BME280;49185;42.320;23.198;2022-11-21T01:05:14;93516.75;;;11.09;84.15
63097;BME280;49185;42.320;23.198;2022-11-21T01:07:40;93501.56;;;11.09;84.04
63097;BME280;49185;42.320;23.198;2022-11-21T01:10:05;93506.63;;;11.11;83.47
63097;BME280;49185;42.320;23.198;2022-11-21T01:12:31;93513.00;;;11.10;84.03
63097;BME280;49185;42.320;23.198;2022-11-21T01:14:56;93494.03;;;11.16;83.07
63097;BME280;49185;42.320;23.198;2022-11-21T01:17:22;93497.66;;;11.26;80.99
63097;BME280;49185;42.320;23.198;2022-11-21T01:19:47;93501.88;;;11.32;81.19
63097;BME280;49185;42.320;23.198;2022-11-21T01:22:13;93484.75;;;11.38;80.12
63097;BME280;49185;42.320;23.198;2022-11-21T01:24:38;93487.88;;;11.45;79.21
63097;BME280;49185;42.320;23.198;2022-11-21T01:27:04;93481.75;;;11.45;79.36
63097;BME280;49185;42.320;23.198;2022-11-21T01:29:29;93487.09;;;11.45;79.46
63097;BME280;49185;42.320;23.198;2022-11-21T01:31:54;93489.19;;;11.48;79.46
63097;BME280;49185;42.320;23.198;2022-11-21T01:34:20;93487.75;;;11.31;80.37
63097;BME280;49185;42.320;23.198;2022-11-21T01:36:46;93485.16;;;11.26;80.13
63097;BME280;49185;42.320;23.198;2022-11-21T01:39:11;93492.56;;;11.53;78.34
63097;BME280;49185;42.320;23.198;2022-11-21T01:41:40;93493.13;;;11.50;79.36
63097;BME280;49185;42.320;23.198;2022-11-21T01:47:10;93471.69;;;11.17;78.92
63097;BME280;49185;42.320;23.198;2022-11-21T01:49:36;93466.72;;;11.54;77.20
63097;BME280;49185;42.320;23.198;2022-11-21T01:52:05;93467.44;;;11.16;79.34
63097;BME280;49185;42.320;23.198;2022-11-21T01:57:44;93483.81;;;11.53;78.33
63097;BME280;49185;42.320;23.198;2022-11-21T02:03:18;93476.44;;;11.45;80.32
63097;BME280;49185;42.320;23.198;2022-11-21T02:05:46;93462.72;;;11.32;80.79
63097;BME280;49185;42.320;23.198;2022-11-21T02:08:18;93444.75;;;11.19;81.59
63097;BME280;49185;42.320;23.198;2022-11-21T02:10:57;93437.34;;;11.16;81.59
63097;BME280;49185;42.320;23.198;2022-11-21T02:13:25;93454.06;;;11.21;80.98
63097;BME280;49185;42.320;23.198;2022-11-21T02:15:51;93452.28;;;11.36;79.44
63097;BME280;49185;42.320;23.198;2022-11-21T02:18:16;93453.06;;;11.36;79.95
63097;BME280;49185;42.320;23.198;2022-11-21T02:20:45;93457.34;;;11.13;80.72
63097;BME280;49185;42.320;23.198;2022-11-21T02:25:44;93452.25;;;11.41;79.32
63097;BME280;49185;42.320;23.198;2022-11-21T02:28:14;93457.59;;;11.60;76.77
63097;BME280;49185;42.320;23.198;2022-11-21T02:30:42;93457.44;;;11.70;75.60
63097;BME280;49185;42.320;23.198;2022-11-21T02:33:09;93429.19;;;11.74;75.35
63097;BME280;49185;42.320;23.198;2022-11-21T02:35:35;93444.66;;;11.72;74.91
63097;BME280;49185;42.320;23.198;2022-11-21T02:38:04;93434.44;;;11.80;73.67
63097;BME280;49185;42.320;23.198;2022-11-21T02:40:36;93443.00;;;11.76;74.42
63097;BME280;49185;42.320;23.198;2022-11-21T02:43:16;93446.63;;;11.43;76.52
63097;BME280;49185;42.320;23.198;2022-11-21T02:45:45;93459.34;;;11.27;77.60
63097;BME280;49185;42.320;23.198;2022-11-21T02:48:11;93451.63;;;11.49;77.36
63097;BME280;49185;42.320;23.198;2022-11-21T02:50:39;93455.84;;;11.50;76.85
63097;BME280;49185;42.320;23.198;2022-11-21T02:53:07;93456.50;;;11.61;75.26
63097;BME280;49185;42.320;23.198;2022-11-21T02:55:33;93443.63;;;11.68;74.89
63097;BME280;49185;42.320;23.198;2022-11-21T02:57:59;93442.88;;;11.44;76.10
63097;BME280;49185;42.320;23.198;2022-11-21T03:00:24;93440.97;;;11.49;74.68
63097;BME280;49185;42.320;23.198;2022-11-21T03:02:50;93444.34;;;11.55;74.64
63097;BME280;49185;42.320;23.198;2022-11-21T03:05:17;93436.06;;;11.56;76.20
63097;BME280;49185;42.320;23.198;2022-11-21T03:07:44;93433.81;;;11.20;77.78
63097;BME280;49185;42.320;23.198;2022-11-21T03:10:10;93438.03;;;11.27;77.88
63097;BME280;49185;42.320;23.198;2022-11-21T03:12:40;93424.66;;;11.08;77.81
63097;BME280;49185;42.320;23.198;2022-11-21T03:15:08;93426.56;;;11.50;74.16
63097;BME280;49185;42.320;23.198;2022-11-21T03:17:34;93419.03;;;11.76;70.55
63097;BME280;49185;42.320;23.198;2022-11-21T03:20:00;93410.66;;;11.83;70.09
63097;BME280;49185;42.320;23.198;2022-11-21T03:22:25;93415.38;;;11.91;70.24
63097;BME280;49185;42.320;23.198;2022-11-21T03:24:51;93418.03;;;11.72;69.63
63097;BME280;49185;42.320;23.198;2022-11-21T03:27:16;93422.50;;;11.96;69.40
63097;BME280;49185;42.320;23.198;2022-11-21T03:29:41;93422.31;;;11.87;70.46
63097;BME280;49185;42.320;23.198;2022-11-21T03:32:07;93428.50;;;11.83;70.28
63097;BME280;49185;42.320;23.198;2022-11-21T03:34:33;93422.50;;;11.96;68.19
63097;BME280;49185;42.320;23.198;2022-11-21T03:36:58;93419.47;;;12.22;68.17
63097;BME280;49185;42.320;23.198;2022-11-21T03:39:24;93414.72;;;12.00;67.17
63097;BME280;49185;42.320;23.198;2022-11-21T03:41:49;93424.44;;;12.42;65.82
63097;BME280;49185;42.320;23.198;2022-11-21T03:44:15;93432.25;;;12.39;65.82
63097;BME280;49185;42.320;23.198;2022-11-21T03:46:43;93436.81;;;12.38;65.71
63097;BME280;49185;42.320;23.198;2022-11-21T03:49:09;93436.72;;;12.43;66.13
63097;BME280;49185;42.320;23.198;2022-11-21T03:51:35;93434.19;;;12.52;65.47
63097;BME280;49185;42.320;23.198;2022-11-21T03:54:04;93425.28;;;12.24;67.44
63097;BME280;49185;42.320;23.198;2022-11-21T03:56:30;93422.50;;;12.15;67.81
63097;BME280;49185;42.320;23.198;2022-11-21T03:58:56;93418.81;;;12.11;67.73
63097;BME280;49185;42.320;23.198;2022-11-21T04:01:22;93410.91;;;12.06;66.41
63097;BME280;49185;42.320;23.198;2022-11-21T04:03:48;93425.31;;;12.38;64.84
63097;BME280;49185;42.320;23.198;2022-11-21T04:06:16;93420.94;;;12.28;64.34
63097;BME280;49185;42.320;23.198;2022-11-21T04:08:42;93423.97;;;12.21;65.15
63097;BME280;49185;42.320;23.198;2022-11-21T04:11:08;93422.16;;;12.03;65.36
63097;BME280;49185;42.320;23.198;2022-11-21T04:13:33;93416.00;;;12.02;65.98
63097;BME280;49185;42.320;23.198;2022-11-21T04:15:59;93407.94;;;12.07;65.59
63097;BME280;49185;42.320;23.198;2022-11-21T04:18:24;93425.16;;;12.15;64.53
63097;BME280;49185;42.320;23.198;2022-11-21T04:20:57;93426.31;;;12.09;64.76
63097;BME280;49185;42.320;23.198;2022-11-21T04:23:23;93435.69;;;12.06;64.91
63097;BME280;49185;42.320;23.198;2022-11-21T04:25:49;93433.94;;;12.15;66.13
63097;BME280;49185;42.320;23.198;2022-11-21T04:28:14;93444.28;;;11.79;66.79
63097;BME280;49185;42.320;23.198;2022-11-21T04:30:39;93450.50;;;11.74;67.14
63097;BME280;49185;42.320;23.198;2022-11-21T04:33:05;93433.22;;;12.10;64.70
63097;BME280;49185;42.320;23.198;2022-11-21T04:35:31;93435.34;;;12.27;63.88
63097;BME280;49185;42.320;23.198;2022-11-21T04:37:57;93444.00;;;12.38;63.81
63097;BME280;49185;42.320;23.198;2022-11-21T04:40:22;93451.13;;;12.09;64.99
63097;BME280;49185;42.320;23.198;2022-11-21T04:42:48;93455.63;;;12.28;63.40
63097;BME280;49185;42.320;23.198;2022-11-21T04:45:14;93455.06;;;12.31;64.41
63097;BME280;49185;42.320;23.198;2022-11-21T04:47:42;93460.38;;;12.12;65.87
63097;BME280;49185;42.320;23.198;2022-11-21T04:50:09;93462.13;;;12.22;64.16
63097;BME280;49185;42.320;23.198;2022-11-21T04:52:35;93466.13;;;12.38;63.72
63097;BME280;49185;42.320;23.198;2022-11-21T04:55:00;93483.13;;;12.42;63.02
63097;BME280;49185;42.320;23.198;2022-11-21T04:57:27;93474.22;;;12.33;62.82
63097;BME280;49185;42.320;23.198;2022-11-21T04:59:53;93479.06;;;12.31;62.91
63097;BME280;49185;42.320;23.198;2022-11-21T05:02:19;93470.44;;;12.34;63.03
63097;BME280;49185;42.320;23.198;2022-11-21T05:04:44;93474.28;;;12.28;61.89
63097;BME280;49185;42.320;23.198;2022-11-21T05:07:09;93478.38;;;12.39;62.03
63097;BME280;49185;42.320;23.198;2022-11-21T05:09:35;93479.22;;;12.53;62.42
63097;BME280;49185;42.320;23.198;2022-11-21T05:12:00;93463.09;;;12.45;61.87
63097;BME280;49185;42.320;23.198;2022-11-21T05:14:26;93469.03;;;12.23;63.13
63097;BME280;49185;42.320;23.198;2022-11-21T05:16:52;93481.94;;;12.34;62.32
63097;BME280;49185;42.320;23.198;2022-11-21T05:19:17;93474.13;;;12.38;61.68
63097;BME280;49185;42.320;23.198;2022-11-21T05:21:43;93472.47;;;12.23;61.25
63097;BME280;49185;42.320;23.198;2022-11-21T05:24:08;93479.94;;;12.59;60.49
63097;BME280;49185;42.320;23.198;2022-11-21T05:26:34;93472.53;;;12.37;61.47
63097;BME280;49185;42.320;23.198;2022-11-21T05:28:59;93474.69;;;12.54;59.86
63097;BME280;49185;42.320;23.198;2022-11-21T05:31:24;93482.00;;;12.62;59.44
63097;BME280;49185;42.320;23.198;2022-11-21T05:33:50;93482.63;;;12.59;60.43
63097;BME280;49185;42.320;23.198;2022-11-21T05:36:15;93501.81;;;12.42;60.26
63097;BME280;49185;42.320;23.198;2022-11-21T05:38:41;93493.72;;;12.66;59.52
63097;BME280;49185;42.320;23.198;2022-11-21T05:41:07;93490.88;;;12.77;60.41
63097;BME280;49185;42.320;23.198;2022-11-21T05:43:32;93500.81;;;12.71;60.95
63097;BME280;49185;42.320;23.198;2022-11-21T05:45:58;93492.66;;;12.81;58.16
63097;BME280;49185;42.320;23.198;2022-11-21T05:48:23;93502.19;;;12.87;58.59
63097;BME280;49185;42.320;23.198;2022-11-21T05:50:49;93515.81;;;12.86;59.18
63097;BME280;49185;42.320;23.198;2022-11-21T05:53:15;93518.31;;;12.96;59.06
63097;BME280;49185;42.320;23.198;2022-11-21T05:55:40;93516.13;;;12.98;58.96
63097;BME280;49185;42.320;23.198;2022-11-21T05:58:06;93522.19;;;13.04;57.38
63097;BME280;49185;42.320;23.198;2022-11-21T06:00:31;93520.09;;;13.01;58.47
63097;BME280;49185;42.320;23.198;2022-11-21T06:02:57;93521.50;;;13.12;57.89
63097;BME280;49185;42.320;23.198;2022-11-21T06:05:22;93524.97;;;12.80;59.22
63097;BME280;49185;42.320;23.198;2022-11-21T06:07:48;93528.78;;;13.06;58.80
63097;BME280;49185;42.320;23.198;2022-11-21T06:10:13;93519.50;;;13.04;58.25
63097;BME280;49185;42.320;23.198;2022-11-21T06:12:39;93530.59;;;13.11;57.25
63097;BME280;49185;42.320;23.198;2022-11-21T06:15:04;93540.38;;;13.02;58.16
63097;BME280;49185;42.320;23.198;2022-11-21T06:17:31;93540.91;;;12.66;59.08
63097;BME280;49185;42.320;23.198;2022-11-21T06:19:56;93550.94;;;12.93;60.13
63097;BME280;49185;42.320;23.198;2022-11-21T06:22:22;93546.28;;;12.99;58.25
63097;BME280;49185;42.320;23.198;2022-11-21T06:24:47;93561.47;;;12.84;58.47
63097;BME280;49185;42.320;23.198;2022-11-21T06:27:12;93557.75;;;12.99;58.56
63097;BME280;49185;42.320;23.198;2022-11-21T06:29:38;93564.13;;;13.03;58.34
63097;BME280;49185;42.320;23.198;2022-11-21T06:32:04;93578.84;;;12.82;59.23
63097;BME280;49185;42.320;23.198;2022-11-21T06:34:29;93579.53;;;12.73;60.61
63097;BME280;49185;42.320;23.198;2022-11-21T06:36:54;93581.50;;;12.82;59.86
63097;BME280;49185;42.320;23.198;2022-11-21T06:39:20;93583.63;;;12.85;59.84
63097;BME280;49185;42.320;23.198;2022-11-21T06:41:46;93588.31;;;12.93;59.12
63097;BME280;49185;42.320;23.198;2022-11-21T06:44:11;93577.50;;;12.84;59.00
63097;BME280;49185;42.320;23.198;2022-11-21T06:46:37;93583.31;;;13.05;58.04
63097;BME280;49185;42.320;23.198;2022-11-21T06:49:02;93587.66;;;13.15;58.71
63097;BME280;49185;42.320;23.198;2022-11-21T06:51:28;93594.03;;;13.19;57.90
63097;BME280;49185;42.320;23.198;2022-11-21T06:53:55;93600.94;;;13.20;58.07
63097;BME280;49185;42.320;23.198;2022-11-21T06:56:25;93605.22;;;13.21;58.66
63097;BME280;49185;42.320;23.198;2022-11-21T06:58:51;93605.69;;;13.42;56.33
63097;BME280;49185;42.320;23.198;2022-11-21T07:01:17;93607.88;;;13.54;55.31
63097;BME280;49185;42.320;23.198;2022-11-21T07:03:42;93612.25;;;13.64;55.97
63097;BME280;49185;42.320;23.198;2022-11-21T07:06:08;93626.78;;;13.58;55.50
63097;BME280;49185;42.320;23.198;2022-11-21T07:08:34;93626.50;;;13.59;56.25
63097;BME280;49185;42.320;23.198;2022-11-21T07:11:04;93632.84;;;13.63;55.97
63097;BME280;49185;42.320;23.198;2022-11-21T07:13:30;93639.19;;;13.67;55.49
63097;BME280;49185;42.320;23.198;2022-11-21T07:16:09;93645.81;;;13.70;55.59
63097;BME280;49185;42.320;23.198;2022-11-21T07:18:35;93640.97;;;13.86;54.63
63097;BME280;49185;42.320;23.198;2022-11-21T07:21:05;93636.63;;;13.76;56.03
63097;BME280;49185;42.320;23.198;2022-11-21T07:23:32;93651.06;;;13.75;53.88
63097;BME280;49185;42.320;23.198;2022-11-21T07:26:05;93656.22;;;13.72;55.27
63097;BME280;49185;42.320;23.198;2022-11-21T07:28:31;93649.88;;;13.67;55.82
63097;BME280;49185;42.320;23.198;2022-11-21T07:30:58;93662.34;;;13.72;55.32
63097;BME280;49185;42.320;23.198;2022-11-21T07:33:24;93668.13;;;13.46;57.72
63097;BME280;49185;42.320;23.198;2022-11-21T07:35:49;93657.22;;;13.76;55.50
63097;BME280;49185;42.320;23.198;2022-11-21T07:38:15;93654.16;;;13.96;53.60
63097;BME280;49185;42.320;23.198;2022-11-21T07:40:40;93638.81;;;14.16;53.61
63097;BME280;49185;42.320;23.198;2022-11-21T07:43:06;93660.13;;;14.07;53.23
63097;BME280;49185;42.320;23.198;2022-11-21T07:45:32;93660.22;;;14.30;54.56
63097;BME280;49185;42.320;23.198;2022-11-21T07:48:03;93679.41;;;14.04;55.31
63097;BME280;49185;42.320;23.198;2022-11-21T07:50:29;93680.22;;;14.04;54.06
63097;BME280;49185;42.320;23.198;2022-11-21T07:52:59;93689.06;;;14.19;53.99
63097;BME280;49185;42.320;23.198;2022-11-21T07:55:25;93689.91;;;13.86;56.45
63097;BME280;49185;42.320;23.198;2022-11-21T07:58:08;93685.69;;;13.66;56.40
63097;BME280;49185;42.320;23.198;2022-11-21T08:00:36;93686.09;;;13.74;55.60
63097;BME280;49185;42.320;23.198;2022-11-21T08:03:03;93701.91;;;13.56;57.30
63097;BME280;49185;42.320;23.198;2022-11-21T08:05:29;93698.31;;;13.80;56.86
63097;BME280;49185;42.320;23.198;2022-11-21T08:07:54;93700.41;;;13.83;55.76
63097;BME280;49185;42.320;23.198;2022-11-21T08:10:19;93705.91;;;13.73;56.62
63097;BME280;49185;42.320;23.198;2022-11-21T08:12:45;93723.53;;;13.74;57.10
63097;BME280;49185;42.320;23.198;2022-11-21T08:15:11;93714.19;;;13.90;56.39
63097;BME280;49185;42.320;23.198;2022-11-21T08:17:37;93717.50;;;14.15;55.03
63097;BME280;49185;42.320;23.198;2022-11-21T08:20:04;93716.69;;;14.28;54.63
63097;BME280;49185;42.320;23.198;2022-11-21T08:22:29;93728.81;;;14.26;54.33
63097;BME280;49185;42.320;23.198;2022-11-21T08:24:55;93724.72;;;14.14;55.71
63097;BME280;49185;42.320;23.198;2022-11-21T08:27:21;93723.31;;;14.03;56.33
63097;BME280;49185;42.320;23.198;2022-11-21T08:29:46;93736.44;;;13.85;57.58
63097;BME280;49185;42.320;23.198;2022-11-21T08:32:13;93748.53;;;13.83;58.40
63097;BME280;49185;42.320;23.198;2022-11-21T08:34:39;93747.22;;;14.13;58.25
63097;BME280;49185;42.320;23.198;2022-11-21T08:37:04;93742.31;;;13.68;59.52
63097;BME280;49185;42.320;23.198;2022-11-21T08:39:30;93747.06;;;13.39;60.71
63097;BME280;49185;42.320;23.198;2022-11-21T08:41:56;93760.81;;;13.08;62.98
63097;BME280;49185;42.320;23.198;2022-11-21T08:44:21;93754.81;;;13.40;62.19
63097;BME280;49185;42.320;23.198;2022-11-21T08:46:47;93751.75;;;13.28;61.56
63097;BME280;49185;42.320;23.198;2022-11-21T08:49:12;93749.69;;;13.77;62.39
63097;BME280;49185;42.320;23.198;2022-11-21T08:51:37;93739.41;;;13.51;62.11
63097;BME280;49185;42.320;23.198;2022-11-21T08:54:03;93749.19;;;13.75;62.00
63097;BME280;49185;42.320;23.198;2022-11-21T08:56:28;93749.31;;;13.83;61.99
63097;BME280;49185;42.320;23.198;2022-11-21T08:58:54;93744.88;;;13.93;61.64
63097;BME280;49185;42.320;23.198;2022-11-21T09:01:19;93743.75;;;14.40;58.92
63097;BME280;49185;42.320;23.198;2022-11-21T09:03:45;93741.47;;;15.03;58.17
63097;BME280;49185;42.320;23.198;2022-11-21T09:06:10;93741.88;;;15.10;57.81
63097;BME280;49185;42.320;23.198;2022-11-21T09:08:36;93749.41;;;15.08;59.30
63097;BME280;49185;42.320;23.198;2022-11-21T09:11:08;93747.81;;;15.21;58.58
63097;BME280;49185;42.320;23.198;2022-11-21T09:13:35;93752.59;;;15.10;57.78
63097;BME280;49185;42.320;23.198;2022-11-21T09:16:01;93752.44;;;14.65;57.17
63097;BME280;49185;42.320;23.198;2022-11-21T09:18:27;93750.09;;;14.44;59.55
63097;BME280;49185;42.320;23.198;2022-11-21T09:20:52;93751.22;;;14.43;57.70
63097;BME280;49185;42.320;23.198;2022-11-21T09:23:18;93744.84;;;14.39;58.53
63097;BME280;49185;42.320;23.198;2022-11-21T09:25:44;93735.97;;;14.72;57.09
63097;BME280;49185;42.320;23.198;2022-11-21T09:28:11;93736.16;;;14.89;55.23
63097;BME280;49185;42.320;23.198;2022-11-21T09:30:38;93737.72;;;14.76;56.50
63097;BME280;49185;42.320;23.198;2022-11-21T09:33:06;93741.31;;;14.86;55.98
63097;BME280;49185;42.320;23.198;2022-11-21T09:35:32;93733.47;;;14.48;56.68
63097;BME280;49185;42.320;23.198;2022-11-21T09:37:58;93744.06;;;14.53;57.06
63097;BME280;49185;42.320;23.198;2022-11-21T09:40:24;93751.28;;;14.24;57.42
63097;BME280;49185;42.320;23.198;2022-11-21T09:43:09;93740.19;;;13.84;56.92
63097;BME280;49185;42.320;23.198;2022-11-21T09:45:49;93737.28;;;14.14;56.38
63097;BME280;49185;42.320;23.198;2022-11-21T09:48:42;93760.31;;;13.82;57.42
63097;BME280;49185;42.320;23.198;2022-11-21T09:51:14;93754.97;;;13.63;60.33
63097;BME280;49185;42.320;23.198;2022-11-21T09:54:04;93754.41;;;13.47;59.61
63097;BME280;49185;42.320;23.198;2022-11-21T09:56:35;93765.38;;;13.26;60.50
63097;BME280;49185;42.320;23.198;2022-11-21T10:01:50;93774.84;;;11.24;68.14
63097;BME280;49185;42.320;23.198;2022-11-21T10:04:15;93776.63;;;10.94;70.44
63097;BME280;49185;42.320;23.198;2022-11-21T10:23:35;93760.56;;;11.05;70.68
63097;BME280;49185;42.320;23.198;2022-11-21T10:31:39;93764.09;;;11.39;69.19
63097;BME280;49185;42.320;23.198;2022-11-21T10:34:14;93762.22;;;11.40;69.94
63097;BME280;49185;42.320;23.198;2022-11-21T10:36:46;93754.44;;;11.49;68.38
63097;BME280;49185;42.320;23.198;2022-11-21T10:39:19;93755.59;;;11.37;68.49
63097;BME280;49185;42.320;23.198;2022-11-21T10:41:57;93761.41;;;11.05;69.18
63097;BME280;49185;42.320;23.198;2022-11-21T10:44:28;93770.63;;;11.18;68.95
63097;BME280;49185;42.320;23.198;2022-11-21T11:02:30;93766.03;;;11.29;67.56
63097;BME280;49185;42.320;23.198;2022-11-21T11:07:40;93779.31;;;10.89;68.82
63097;BME280;49185;42.320;23.198;2022-11-21T11:10:22;93768.88;;;10.98;68.29
63097;BME280;49185;42.320;23.198;2022-11-21T11:12:49;93774.00;;;11.34;67.70
63097;BME280;49185;42.320;23.198;2022-11-21T11:15:25;93763.34;;;11.34;66.92
63097;BME280;49185;42.320;23.198;2022-11-21T11:17:55;93777.03;;;11.12;67.03
63097;BME280;49185;42.320;23.198;2022-11-21T11:20:37;93771.16;;;11.20;66.58
63097;BME280;49185;42.320;23.198;2022-11-21T11:38:44;93747.81;;;12.82;60.85
63097;BME280;49185;42.320;23.198;2022-11-21T11:44:16;93756.00;;;12.43;62.18
63097;BME280;49185;42.320;23.198;2022-11-21T11:47:07;93761.34;;;12.19;63.80
63097;BME280;49185;42.320;23.198;2022-11-21T11:52:06;93773.94;;;11.44;65.15
63097;BME280;49185;42.320;23.198;2022-11-21T11:54:44;93774.28;;;11.27;65.10
63097;BME280;49185;42.320;23.198;2022-11-21T11:57:12;93773.78;;;11.25;65.35
63097;BME280;49185;42.320;23.198;2022-11-21T11:59:47;93777.03;;;11.12;65.35
63097;BME280;49185;42.320;23.198;2022-11-21T12:02:24;93778.34;;;11.19;65.63
63097;BME280;49185;42.320;23.198;2022-11-21T12:05:02;93784.56;;;11.49;64.69
63097;BME280;49185;42.320;23.198;2022-11-21T12:07:39;93772.47;;;11.62;63.67
63097;BME280;49185;42.320;23.198;2022-11-21T12:10:23;93773.88;;;11.54;63.94
63097;BME280;49185;42.320;23.198;2022-11-21T12:12:56;93774.13;;;11.53;63.88
63097;BME280;49185;42.320;23.198;2022-11-21T12:15:37;93780.22;;;11.58;64.09
63097;BME280;49185;42.320;23.198;2022-11-21T12:23:17;93777.47;;;11.29;64.31
63097;BME280;49185;42.320;23.198;2022-11-21T12:34:23;93788.88;;;10.85;65.30
63097;BME280;49185;42.320;23.198;2022-11-21T12:50:02;93800.41;;;10.65;66.12
63097;BME280;49185;42.320;23.198;2022-11-21T12:52:47;93784.72;;;10.58;66.26
63097;BME280;49185;42.320;23.198;2022-11-21T12:55:40;93796.25;;;10.38;65.73
63097;BME280;49185;42.320;23.198;2022-11-21T13:03:59;93810.91;;;11.01;64.46
63097;BME280;49185;42.320;23.198;2022-11-21T13:06:28;93811.75;;;10.96;65.83
63097;BME280;49185;42.320;23.198;2022-11-21T13:08:58;93810.13;;;10.95;66.51
63097;BME280;49185;42.320;23.198;2022-11-21T13:11:36;93809.53;;;11.14;64.43
63097;BME280;49185;42.320;23.198;2022-11-21T13:19:56;93805.00;;;11.54;61.63
63097;BME280;49185;42.320;23.198;2022-11-21T13:25:01;93808.91;;;11.27;62.53
63097;BME280;49185;42.320;23.198;2022-11-21T13:27:38;93822.59;;;11.10;63.10
63097;BME280;49185;42.320;23.198;2022-11-21T13:35:01;93831.88;;;11.13;63.10
63097;BME280;49185;42.320;23.198;2022-11-21T13:40:37;93838.38;;;10.91;63.73
63097;BME280;49185;42.320;23.198;2022-11-21T13:45:51;93828.78;;;10.85;62.56
63097;BME280;49185;42.320;23.198;2022-11-21T14:02:17;93834.72;;;10.67;63.95
63097;BME280;49185;42.320;23.198;2022-11-21T14:07:29;93836.66;;;10.35;63.47
63097;BME280;49185;42.320;23.198;2022-11-21T14:09:58;93849.13;;;10.19;64.67
63097;BME280;49185;42.320;23.198;2022-11-21T14:12:37;93837.19;;;10.01;65.70
63097;BME280;49185;42.320;23.198;2022-11-21T14:17:41;93847.03;;;9.91;65.41
63097;BME280;49185;42.320;23.198;2022-11-21T14:20:14;93847.22;;;9.32;68.77
63097;BME280;49185;42.320;23.198;2022-11-21T14:22:46;93856.56;;;9.40;70.24
63097;BME280;49185;42.320;23.198;2022-11-21T14:25:18;93852.19;;;9.03;71.21
63097;BME280;49185;42.320;23.198;2022-11-21T14:27:47;93855.97;;;9.18;71.31
63097;BME280;49185;42.320;23.198;2022-11-21T14:30:30;93865.34;;;9.51;69.83
63097;BME280;49185;42.320;23.198;2022-11-21T14:32:55;93865.06;;;9.53;70.13
63097;BME280;49185;42.320;23.198;2022-11-21T14:35:22;93873.31;;;9.66;69.01
63097;BME280;49185;42.320;23.198;2022-11-21T14:37:48;93875.59;;;9.22;70.96
63097;BME280;49185;42.320;23.198;2022-11-21T14:40:23;93882.66;;;8.96;71.58
63097;BME280;49185;42.320;23.198;2022-11-21T14:42:49;93878.84;;;8.76;73.10
63097;BME280;49185;42.320;23.198;2022-11-21T14:45:20;93878.31;;;8.31;74.64
63097;BME280;49185;42.320;23.198;2022-11-21T14:47:51;93879.13;;;8.37;74.21
63097;BME280;49185;42.320;23.198;2022-11-21T14:50:28;93875.19;;;8.40;74.79
63097;BME280;49185;42.320;23.198;2022-11-21T14:52:55;93872.63;;;7.80;76.16
63097;BME280;49185;42.320;23.198;2022-11-21T14:55:24;93863.22;;;7.94;76.34
63097;BME280;49185;42.320;23.198;2022-11-21T14:57:51;93863.78;;;8.02;75.20
63097;BME280;49185;42.320;23.198;2022-11-21T15:00:25;93866.56;;;7.52;77.99
63097;BME280;49185;42.320;23.198;2022-11-21T15:02:56;93877.44;;;7.29;78.65
63097;BME280;49185;42.320;23.198;2022-11-21T15:05:30;93883.94;;;7.70;76.51
63097;BME280;49185;42.320;23.198;2022-11-21T15:07:56;93886.81;;;7.14;77.46
63097;BME280;49185;42.320;23.198;2022-11-21T15:10:22;93889.66;;;6.86;78.60
63097;BME280;49185;42.320;23.198;2022-11-21T15:12:54;93887.06;;;6.69;79.54
63097;BME280;49185;42.320;23.198;2022-11-21T15:15:42;93892.34;;;6.69;79.52
63097;BME280;49185;42.320;23.198;2022-11-21T15:18:25;93897.69;;;6.74;79.72
63097;BME280;49185;42.320;23.198;2022-11-21T15:20:54;93909.25;;;7.61;75.01
63097;BME280;49185;42.320;23.198;2022-11-21T15:23:28;93905.13;;;8.03;69.31